Lynchburg Regional Preston Glenn Field Lynchburg US
ICAO: KLYH
IATA: LYH
Category: Medium
Scheduled Services: Yes

Elevation: 938 ft
TransAlt. 18000 ft.

Airport Communications:
ROANOKE APP/DEP:125.47
ATIS:119.8
CTAF:127.65
GND:121.9
LEESBURG RDO:109.2
TWR:127.65
UNICOM:122.95

KLYH Zoom In..

If Map Doesn't Load, Click Here

Runways:

(A) RW 04 length 7100 ft width 150 ft
ILS 110.10 / hdg 36

(B) RW 17 length 3386 ft width 75 ft
---- / hdg 170

(C) RW 22 length 7100 ft width 150 ft
---- / hdg 216

(D) RW 35 length 3386 ft width 75 ft
---- / hdg 350

Location; KLYH
Day. 21 / Time. 13.36 Zulu
* Altimeter: 30.23
* Temperature: 22° c. 71.6°f.
* Wind from: 160° Speed 08 kn.
Dewpoint: 21° c.
Visibility: 7 Statute Miles.
Clouds: Overcast 500 ft.

KLYH 211336Z 16008KT 7SM OVC005 22/21 A3023 RMK AO2 T02170211


Wind From 160°
Speed 08 kn.

 
 
jpsmedia.com for Web Design worldairports.se 2018   terms of use